Time;durP1;ratioP1;P1;durP2;ratioP2;P2;SDS_P1;SDS_P2;PMS_P1;PMS_P2;Temp;Humidity;BMP_temperature;BMP_pressure;BME280_temperature;BME280_humidity;BME280_pressure;Samples;Min_cycle;Max_cycle;Signal;HPM_P1;HPM_P2
2022/05/05 00:01:35;;;;;;;13.13;10.73;;;8.60;99.90;;;;;;4945592;29;20199;-79
2022/05/05 00:04:02;;;;;;;14.57;10.83;;;8.60;99.90;;;;;;4955841;28;20306;-79
2022/05/05 00:06:29;;;;;;;13.10;10.57;;;8.50;99.90;;;;;;4956140;29;20262;-79
2022/05/05 00:08:58;;;;;;;15.10;10.80;;;8.60;99.90;;;;;;4956178;28;20230;-79
2022/05/05 00:14:28;;;;;;;13.40;11.17;;;8.50;99.90;;;;;;4956433;28;20588;-79
2022/05/05 00:16:57;;;;;;;14.63;10.57;;;8.50;99.90;;;;;;4956114;28;20199;-79
2022/05/05 00:19:24;;;;;;;13.80;11.30;;;8.40;99.90;;;;;;4956730;28;20203;-79
2022/05/05 00:21:51;;;;;;;13.50;10.50;;;8.40;99.90;;;;;;4956614;28;20238;-79
2022/05/05 00:24:20;;;;;;;13.37;10.57;;;8.40;99.90;;;;;;4955929;29;20293;-79
2022/05/05 00:26:47;;;;;;;15.03;10.70;;;8.40;99.90;;;;;;4956349;29;20616;-79
2022/05/05 00:29:15;;;;;;;14.63;10.40;;;8.30;99.90;;;;;;4955784;29;20258;-79
2022/05/05 00:31:42;;;;;;;14.97;11.00;;;8.20;99.90;;;;;;4954912;28;20203;-79
2022/05/05 00:34:10;;;;;;;14.87;11.07;;;8.20;99.90;;;;;;4956486;29;20293;-79
2022/05/05 00:36:37;;;;;;;12.23;10.40;;;8.00;99.90;;;;;;4949836;29;20213;-79
2022/05/05 00:39:04;;;;;;;12.07;9.70;;;7.90;99.90;;;;;;4950580;29;20288;-79
2022/05/05 00:41:34;;;;;;;15.00;10.10;;;7.80;99.90;;;;;;4939829;29;20293;-80
2022/05/05 00:44:03;;;;;;;13.67;10.13;;;7.70;99.90;;;;;;4937122;29;20298;-79
2022/05/05 00:46:31;;;;;;;13.43;9.70;;;7.60;99.90;;;;;;4935730;29;20299;-79
2022/05/05 00:48:58;;;;;;;13.83;10.33;;;7.60;99.90;;;;;;4936744;29;20323;-79
2022/05/05 00:51:25;;;;;;;13.23;10.37;;;7.80;99.90;;;;;;4937231;29;20246;-79
2022/05/05 00:53:52;;;;;;;15.90;11.40;;;7.90;99.90;;;;;;4950292;28;20237;-79
2022/05/05 00:56:19;;;;;;;14.90;10.77;;;8.00;99.90;;;;;;4954935;28;20216;-79
2022/05/05 00:58:49;;;;;;;15.97;11.37;;;8.00;99.90;;;;;;4939112;29;20227;-79
2022/05/05 01:01:19;;;;;;;14.30;10.70;;;8.00;99.90;;;;;;4935862;29;20271;-79
2022/05/05 01:03:46;;;;;;;14.07;10.90;;;8.00;99.90;;;;;;4936614;29;20243;-79
2022/05/05 01:06:14;;;;;;;15.43;11.20;;;8.00;99.90;;;;;;4939072;29;20746;-79
2022/05/05 01:08:41;;;;;;;14.33;10.87;;;7.90;99.90;;;;;;4954511;29;20228;-79
2022/05/05 01:11:08;;;;;;;15.17;11.40;;;8.00;99.90;;;;;;4942014;28;20327;-79
2022/05/05 01:13:38;;;;;;;15.73;11.00;;;7.90;99.90;;;;;;4955025;29;20576;-79
2022/05/05 01:16:08;;;;;;;15.67;11.40;;;7.90;99.90;;;;;;4955259;29;20243;-79
2022/05/05 01:18:36;;;;;;;14.73;11.27;;;7.80;99.90;;;;;;4955672;29;20287;-79
2022/05/05 01:21:03;;;;;;;14.23;11.57;;;7.80;99.90;;;;;;4940747;28;20227;-79
2022/05/05 01:23:31;;;;;;;16.57;11.27;;;7.80;99.90;;;;;;4955208;28;20286;-79
2022/05/05 01:28:45;;;;;;;15.77;11.43;;;7.70;99.90;;;;;;4953649;28;20234;-79
2022/05/05 01:31:12;;;;;;;17.03;12.13;;;7.70;99.90;;;;;;4954907;28;20277;-79
2022/05/05 01:33:39;;;;;;;16.20;11.70;;;7.70;99.90;;;;;;4954399;29;20231;-80
2022/05/05 01:36:07;;;;;;;16.10;11.60;;;7.70;99.90;;;;;;4945768;29;20294;-79
2022/05/05 01:38:40;;;;;;;14.07;10.40;;;7.70;99.90;;;;;;4943034;29;20282;-79
2022/05/05 01:41:08;;;;;;;16.37;10.40;;;7.20;99.90;;;;;;4954638;29;20548;-79
2022/05/05 01:43:35;;;;;;;15.60;10.63;;;6.70;99.90;;;;;;4954728;29;20299;-80
2022/05/05 01:46:03;;;;;;;13.63;10.20;;;6.50;99.90;;;;;;4940701;29;20291;-79
2022/05/05 01:48:30;;;;;;;13.63;9.93;;;6.40;99.90;;;;;;4935415;29;20319;-79
2022/05/05 01:50:57;;;;;;;12.83;9.80;;;6.40;99.90;;;;;;4935418;29;20246;-79
2022/05/05 01:53:24;;;;;;;12.63;9.57;;;6.30;99.90;;;;;;4935317;29;20239;-80
2022/05/05 01:55:53;;;;;;;14.33;10.17;;;6.40;99.90;;;;;;4935837;29;20256;-80
2022/05/05 01:58:20;;;;;;;12.97;9.83;;;6.60;99.90;;;;;;4949046;28;20206;-79
2022/05/05 02:00:47;;;;;;;14.97;10.63;;;6.70;99.90;;;;;;4954624;29;20298;-79
2022/05/05 02:03:14;;;;;;;13.00;10.47;;;6.80;99.90;;;;;;4954111;28;20199;-79
2022/05/05 02:05:42;;;;;;;12.33;9.50;;;6.60;99.90;;;;;;4954723;28;20203;-79
2022/05/05 02:08:09;;;;;;;13.07;9.57;;;6.60;99.90;;;;;;4954757;28;20211;-79
2022/05/05 02:10:36;;;;;;;13.13;8.93;;;6.50;99.90;;;;;;4952732;28;20239;-79
2022/05/05 02:13:07;;;;;;;13.47;9.17;;;6.40;99.90;;;;;;4949472;29;20658;-79
2022/05/05 02:15:35;;;;;;;13.20;9.40;;;6.20;99.90;;;;;;4945184;29;20213;-80
2022/05/05 02:18:09;;;;;;;11.97;9.40;;;6.20;99.90;;;;;;4954310;29;20199;-79
2022/05/05 02:20:37;;;;;;;11.67;9.03;;;6.20;99.90;;;;;;4953821;29;20202;-79
2022/05/05 02:23:04;;;;;;;13.30;9.63;;;6.20;99.90;;;;;;4954460;29;20210;-79
2022/05/05 02:25:31;;;;;;;12.53;9.37;;;6.30;99.90;;;;;;4942413;29;20222;-78
2022/05/05 02:27:58;;;;;;;11.87;9.40;;;6.40;99.90;;;;;;4953944;29;20251;-78
2022/05/05 02:30:28;;;;;;;11.80;9.63;;;6.70;99.90;;;;;;4954418;29;20264;-79
2022/05/05 02:32:55;;;;;;;12.37;9.30;;;6.70;99.90;;;;;;4954267;29;20220;-79
2022/05/05 02:35:22;;;;;;;13.63;9.60;;;6.90;99.90;;;;;;4939871;29;20295;-79
2022/05/05 02:40:34;;;;;;;11.27;8.83;;;7.20;99.90;;;;;;4935361;29;20199;-79
2022/05/05 02:43:01;;;;;;;12.80;10.23;;;7.30;99.90;;;;;;4948966;28;20238;-79
2022/05/05 02:45:30;;;;;;;14.83;9.87;;;7.40;99.90;;;;;;4954177;29;20235;-79
2022/05/05 02:47:57;;;;;;;13.07;10.20;;;7.60;99.90;;;;;;4953696;29;20296;-79
2022/05/05 02:50:24;;;;;;;11.67;9.43;;;7.70;99.90;;;;;;4953733;29;20286;-79
2022/05/05 02:52:51;;;;;;;12.57;9.20;;;7.70;99.90;;;;;;4953472;29;20205;-79
2022/05/05 02:55:17;;;;;;;12.57;10.27;;;7.60;99.90;;;;;;4953667;29;20260;-79
2022/05/05 02:57:44;;;;;;;12.47;9.17;;;7.50;99.90;;;;;;4948944;29;20199;-79
2022/05/05 03:00:12;;;;;;;12.27;9.30;;;7.40;99.90;;;;;;4934796;29;20295;-80
2022/05/05 03:02:43;;;;;;;12.80;9.60;;;7.50;99.90;;;;;;4934961;29;20242;-80
2022/05/05 03:05:10;;;;;;;11.27;9.07;;;7.60;99.90;;;;;;4934663;29;20208;-80
2022/05/05 03:07:38;;;;;;;11.80;9.40;;;7.70;99.90;;;;;;4934666;29;20698;-80
2022/05/05 03:10:06;;;;;;;12.23;8.97;;;7.70;99.90;;;;;;4942317;29;20368;-80
2022/05/05 03:12:33;;;;;;;12.53;10.10;;;7.60;99.90;;;;;;4956939;29;20758;-79
2022/05/05 03:15:00;;;;;;;13.63;9.60;;;7.70;99.90;;;;;;4956574;29;20243;-79
2022/05/05 03:17:28;;;;;;;12.20;9.67;;;7.80;99.90;;;;;;4938436;29;20664;-80
2022/05/05 03:19:56;;;;;;;12.90;10.23;;;7.80;99.90;;;;;;4940438;29;20237;-79
2022/05/05 03:22:23;;;;;;;11.93;9.97;;;8.00;99.90;;;;;;4957211;29;20304;-79
2022/05/05 03:24:50;;;;;;;13.87;10.80;;;8.00;99.90;;;;;;4957322;29;20203;-79
2022/05/05 03:27:17;;;;;;;13.23;10.37;;;8.00;99.90;;;;;;4956568;29;20293;-80
2022/05/05 03:29:44;;;;;;;13.37;10.33;;;7.90;99.90;;;;;;4946020;29;20777;-80
2022/05/05 03:32:11;;;;;;;13.90;10.83;;;7.90;99.90;;;;;;4956018;29;20300;-80
2022/05/05 03:34:38;;;;;;;15.10;11.00;;;8.10;99.90;;;;;;4956791;29;20216;-81
2022/05/05 03:37:06;;;;;;;15.67;11.70;;;7.90;99.90;;;;;;4950946;28;20681;-80
2022/05/05 03:39:33;;;;;;;15.97;11.80;;;7.80;99.90;;;;;;4956228;28;20297;-80
2022/05/05 03:42:01;;;;;;;16.33;12.10;;;7.80;99.90;;;;;;4956870;29;20683;-80
2022/05/05 03:44:27;;;;;;;16.23;12.10;;;7.90;99.90;;;;;;4957313;29;20235;-80
2022/05/05 03:46:54;;;;;;;16.33;12.03;;;7.90;99.90;;;;;;4956946;29;20250;-80
2022/05/05 03:49:21;;;;;;;15.13;11.53;;;7.90;99.90;;;;;;4956527;29;20259;-80
2022/05/05 03:51:48;;;;;;;16.23;12.00;;;8.10;99.90;;;;;;4954419;29;20253;-80
2022/05/05 03:54:16;;;;;;;14.23;11.20;;;8.10;99.90;;;;;;4947430;29;20290;-80
2022/05/05 03:56:44;;;;;;;16.83;11.30;;;8.20;99.90;;;;;;4956881;29;20265;-80
2022/05/05 03:59:10;;;;;;;14.13;10.87;;;8.30;99.90;;;;;;4945303;29;20286;-81
2022/05/05 04:01:37;;;;;;;14.17;10.60;;;8.40;99.90;;;;;;4937325;29;20655;-80
2022/05/05 04:04:04;;;;;;;15.60;10.60;;;8.60;99.90;;;;;;4954037;29;20206;-80
2022/05/05 04:06:32;;;;;;;13.77;11.13;;;8.70;99.90;;;;;;4956890;29;20288;-80
2022/05/05 04:09:00;;;;;;;12.50;9.47;;;8.80;99.90;;;;;;4954793;29;20585;-79
2022/05/05 04:11:28;;;;;;;11.63;9.23;;;9.00;99.90;;;;;;4943817;29;20215;-80
2022/05/05 04:13:55;;;;;;;11.80;9.07;;;9.30;99.90;;;;;;4956185;29;20293;-80
2022/05/05 04:16:22;;;;;;;18.07;10.60;;;9.50;99.90;;;;;;4956444;29;20290;-80
2022/05/05 04:18:49;;;;;;;12.83;10.37;;;9.60;99.90;;;;;;4955991;29;20242;-81
2022/05/05 04:21:16;;;;;;;14.40;11.00;;;9.10;99.90;;;;;;4956302;28;20203;-81
2022/05/05 04:23:43;;;;;;;14.53;10.87;;;8.70;99.90;;;;;;4956212;29;20205;-81
2022/05/05 04:26:11;;;;;;;15.23;11.80;;;8.60;99.90;;;;;;4955199;29;20246;-80
2022/05/05 04:28:41;;;;;;;14.80;10.93;;;8.60;99.90;;;;;;4940100;29;20207;-81
2022/05/05 04:31:11;;;;;;;15.10;10.80;;;8.70;99.90;;;;;;4955343;29;20695;-81
2022/05/05 04:33:38;;;;;;;15.97;10.87;;;8.70;99.90;;;;;;4940275;29;20246;-80
2022/05/05 04:36:06;;;;;;;14.43;10.37;;;8.90;99.90;;;;;;4937185;29;20580;-80
2022/05/05 04:38:33;;;;;;;11.57;8.10;;;9.10;99.90;;;;;;4936385;29;20672;-80
2022/05/05 04:41:00;;;;;;;10.97;8.00;;;9.50;99.90;;;;;;4948215;29;20227;-80
2022/05/05 04:43:27;;;;;;;16.33;11.60;;;9.80;99.90;;;;;;4954635;28;20227;-80
2022/05/05 04:45:55;;;;;;;17.00;11.20;;;9.30;99.90;;;;;;4952857;29;20295;-80
2022/05/05 04:48:22;;;;;;;13.53;11.00;;;8.90;99.90;;;;;;4932012;29;20605;-80
2022/05/05 04:50:49;;;;;;;13.43;10.87;;;8.90;99.90;;;;;;4942506;29;20306;-80
2022/05/05 04:53:16;;;;;;;13.83;10.83;;;8.90;99.90;;;;;;4946287;29;20286;-80
2022/05/05 04:55:43;;;;;;;14.17;10.53;;;9.00;99.90;;;;;;4954782;29;20659;-81
2022/05/05 04:58:09;;;;;;;13.77;10.67;;;9.00;99.90;;;;;;4939010;29;20238;-77
2022/05/05 05:00:37;;;;;;;14.33;10.27;;;9.10;99.90;;;;;;4950703;29;20282;-77
2022/05/05 05:03:05;;;;;;;16.40;10.90;;;9.00;99.90;;;;;;4944640;29;20209;-77
2022/05/05 05:05:52;;;;;;;14.83;10.50;;;9.00;99.90;;;;;;4940470;29;20210;-77
2022/05/05 05:08:19;;;;;;;15.93;11.50;;;9.10;99.90;;;;;;4944169;29;20242;-77
2022/05/05 05:10:45;;;;;;;13.63;11.00;;;9.10;99.90;;;;;;4945443;28;20266;-79
2022/05/05 05:13:12;;;;;;;13.03;10.27;;;9.20;99.90;;;;;;4952129;28;20241;-79
2022/05/05 05:15:39;;;;;;;12.90;10.67;;;9.20;99.90;;;;;;4955117;29;20281;-78
2022/05/05 05:18:08;;;;;;;15.53;11.37;;;9.30;99.90;;;;;;4955079;29;20207;-78
2022/05/05 05:20:35;;;;;;;14.50;10.47;;;9.30;99.90;;;;;;4935922;29;20291;-78
2022/05/05 05:23:01;;;;;;;13.57;10.27;;;9.40;99.90;;;;;;4942149;29;20291;-79
2022/05/05 05:25:28;;;;;;;14.53;10.83;;;9.50;99.90;;;;;;4944134;29;20235;-79
2022/05/05 05:27:57;;;;;;;12.80;10.27;;;9.40;99.90;;;;;;4941199;29;20249;-79
2022/05/05 05:30:27;;;;;;;14.57;10.20;;;9.40;99.90;;;;;;4938159;29;20227;-79
2022/05/05 05:32:58;;;;;;;14.93;11.03;;;9.30;99.90;;;;;;4948588;28;20211;-79
2022/05/05 05:35:26;;;;;;;12.27;10.00;;;9.20;99.90;;;;;;4946653;28;20231;-79
2022/05/05 05:37:53;;;;;;;15.40;11.00;;;9.30;99.90;;;;;;4942373;29;20745;-79
2022/05/05 05:40:20;;;;;;;12.87;10.23;;;9.70;99.90;;;;;;4953319;28;20224;-79
2022/05/05 05:42:47;;;;;;;11.07;9.33;;;10.30;99.90;;;;;;4947641;29;20671;-78
2022/05/05 05:45:14;;;;;;;10.17;8.50;;;10.90;99.90;;;;;;4952086;29;20241;-79
2022/05/05 05:47:41;;;;;;;9.33;8.17;;;11.60;99.90;;;;;;4954769;28;20565;-79
2022/05/05 05:50:09;;;;;;;9.00;7.87;;;12.20;99.90;;;;;;4954618;29;20645;-79
2022/05/05 05:52:37;;;;;;;9.27;7.50;;;12.60;99.90;;;;;;4952172;28;20330;-79
2022/05/05 05:55:04;;;;;;;8.77;6.77;;;13.10;99.90;;;;;;4954868;29;20230;-79
2022/05/05 05:57:31;;;;;;;8.43;7.17;;;13.50;99.90;;;;;;4954249;29;20716;-79
2022/05/05 05:59:58;;;;;;;7.77;6.43;;;14.00;99.90;;;;;;4935482;29;20291;-79
2022/05/05 06:05:09;;;;;;;8.63;6.60;;;15.20;99.90;;;;;;4935208;29;20199;-79
2022/05/05 06:07:38;;;;;;;7.87;6.83;;;16.10;99.90;;;;;;4935354;29;20239;-79
2022/05/05 06:10:05;;;;;;;8.27;6.90;;;16.70;99.90;;;;;;4934653;29;20331;-79
2022/05/05 06:12:32;;;;;;;7.60;6.50;;;17.20;99.90;;;;;;4949772;29;20280;-79
2022/05/05 06:14:59;;;;;;;8.47;6.80;;;17.20;99.90;;;;;;4954149;29;20299;-79
2022/05/05 06:17:26;;;;;;;8.25;6.60;;;17.50;99.90;;;;;;4953104;28;20230;-79
2022/05/05 06:19:53;;;;;;;8.50;6.55;;;17.90;99.90;;;;;;4954062;28;20240;-79
2022/05/05 06:22:20;;;;;;;18.10;7.53;;;18.00;99.90;;;;;;4954675;28;20305;-79
2022/05/05 06:24:48;;;;;;;15.00;7.15;;;18.10;99.90;;;;;;4953960;28;20223;-79
2022/05/05 06:27:15;;;;;;;9.13;5.95;;;18.40;99.90;;;;;;4954699;28;20638;-80
2022/05/05 06:29:41;;;;;;;6.78;5.18;;;18.60;99.90;;;;;;4953392;28;20238;-79
2022/05/05 06:32:09;;;;;;;6.68;5.60;;;19.10;99.90;;;;;;4951926;29;20283;-79
2022/05/05 06:34:36;;;;;;;5.65;5.07;;;19.60;99.90;;;;;;4953564;28;20235;-79
2022/05/05 06:37:05;;;;;;;6.78;5.63;;;20.00;99.90;;;;;;4954323;28;20305;-79
2022/05/05 06:39:32;;;;;;;6.15;4.82;;;20.10;99.90;;;;;;4953612;28;20199;-81
2022/05/05 06:42:01;;;;;;;6.35;5.05;;;20.20;99.90;;;;;;4954085;29;20234;-79
2022/05/05 06:44:28;;;;;;;5.28;4.78;;;20.30;99.90;;;;;;4951253;28;20644;-79
2022/05/05 06:46:58;;;;;;;4.97;4.57;;;20.60;99.90;;;;;;4938487;28;20257;-78
2022/05/05 06:49:25;;;;;;;6.05;4.82;;;20.60;99.90;;;;;;4953512;28;20765;-79
2022/05/05 06:51:52;;;;;;;5.00;4.50;;;20.90;99.90;;;;;;4942449;29;20707;-79
2022/05/05 06:54:18;;;;;;;5.93;4.40;;;20.40;99.90;;;;;;4934619;29;20231;-79
2022/05/05 06:56:45;;;;;;;4.70;4.28;;;20.70;99.90;;;;;;4934877;29;20290;-79
2022/05/05 06:59:13;;;;;;;6.13;4.25;;;20.30;99.90;;;;;;4934771;29;20421;-79
2022/05/05 07:01:52;;;;;;;4.28;3.88;;;20.50;99.90;;;;;;4935525;29;20706;-79
2022/05/05 07:07:05;;;;;;;4.95;3.67;;;21.10;99.90;;;;;;4953262;29;20279;-79
2022/05/05 07:12:16;;;;;;;3.78;3.47;;;21.20;99.90;;;;;;4940706;29;21262;-78
2022/05/05 07:14:45;;;;;;;5.20;4.10;;;20.40;99.90;;;;;;4934706;29;20631;-78
2022/05/05 07:17:12;;;;;;;5.25;3.95;;;19.80;99.90;;;;;;4934050;29;20235;-79
2022/05/05 07:19:40;;;;;;;5.18;4.07;;;19.00;99.90;;;;;;4934294;29;20239;-78
2022/05/05 07:22:08;;;;;;;4.28;3.70;;;18.20;99.90;;;;;;4933455;29;20683;-77
2022/05/05 07:24:35;;;;;;;4.47;4.07;;;18.60;99.90;;;;;;4934514;29;20212;-77
2022/05/05 07:27:03;;;;;;;5.47;4.30;;;18.70;99.90;;;;;;4932899;29;20223;-77
2022/05/05 07:29:30;;;;;;;6.45;4.32;;;18.90;99.90;;;;;;4934593;29;20255;-77
2022/05/05 07:31:59;;;;;;;5.93;3.97;;;19.20;99.90;;;;;;4933908;29;20228;-76
2022/05/05 07:34:26;;;;;;;4.18;3.67;;;19.50;99.90;;;;;;4934252;29;20294;-77
2022/05/05 07:36:53;;;;;;;4.45;3.97;;;18.00;99.90;;;;;;4932719;29;20242;-78
2022/05/05 07:39:20;;;;;;;4.65;4.07;;;17.40;99.90;;;;;;4934270;29;20739;-77
2022/05/05 07:41:47;;;;;;;4.95;3.83;;;17.90;99.90;;;;;;4934473;29;20250;-77
2022/05/05 07:44:15;;;;;;;5.28;3.95;;;18.90;99.90;;;;;;4934034;29;20685;-77
2022/05/05 07:46:42;;;;;;;4.28;3.88;;;19.20;99.90;;;;;;4934234;29;20247;-77
2022/05/05 07:49:11;;;;;;;6.20;4.35;;;19.70;99.90;;;;;;4934132;29;20239;-77
2022/05/05 07:51:37;;;;;;;7.75;4.28;;;20.00;99.90;;;;;;4933670;29;20259;-77
2022/05/05 07:56:51;;;;;;;6.43;5.10;;;19.60;99.90;;;;;;4936880;29;20243;-78
2022/05/05 07:59:18;;;;;;;6.32;5.63;;;18.80;99.90;;;;;;4937719;29;20222;-78
2022/05/05 08:01:45;;;;;;;6.10;5.50;;;18.20;99.90;;;;;;4937474;29;20672;-78
2022/05/05 08:04:13;;;;;;;6.30;5.78;;;17.40;99.90;;;;;;4937287;29;20239;-78
2022/05/05 08:06:40;;;;;;;5.72;4.97;;;17.30;99.90;;;;;;4931333;29;20236;-77
2022/05/05 08:09:07;;;;;;;6.57;5.53;;;17.20;99.90;;;;;;4931232;29;20203;-77
2022/05/05 08:11:36;;;;;;;6.60;5.20;;;16.80;99.90;;;;;;4956316;29;20321;-77
2022/05/05 08:14:04;;;;;;;6.57;5.30;;;16.40;99.90;;;;;;4956538;29;20563;-77
2022/05/05 08:16:31;;;;;;;6.38;4.82;;;16.70;99.90;;;;;;4956213;29;20214;-77
2022/05/05 08:18:58;;;;;;;6.53;4.72;;;18.40;99.90;;;;;;4956852;29;20290;-77
2022/05/05 08:21:27;;;;;;;5.95;4.70;;;19.10;99.90;;;;;;4956323;29;20199;-77
2022/05/05 08:28:28;;;;;;;6.65;4.20;;;18.70;99.90;;;;;;4956387;29;20285;-77
2022/05/05 08:29:26;;;;;;;4.78;3.70;;;19.10;99.90;;;;;;4956135;28;20253;-78
2022/05/05 08:31:53;;;;;;;5.15;3.60;;;20.40;99.90;;;;;;4941350;29;20259;-78
2022/05/05 08:34:20;;;;;;;3.67;3.13;;;21.00;99.90;;;;;;4936837;29;20680;-78
2022/05/05 08:36:48;;;;;;;4.03;2.80;;;23.20;99.90;;;;;;4937405;29;20290;-78
2022/05/05 08:39:15;;;;;;;3.08;2.50;;;24.90;99.90;;;;;;4937165;29;20254;-78
2022/05/05 08:41:43;;;;;;;4.10;2.53;;;24.40;99.90;;;;;;4939386;29;20635;-78
2022/05/05 08:44:10;;;;;;;4.68;2.60;;;22.80;99.90;;;;;;4936770;29;20208;-78
2022/05/05 08:46:40;;;;;;;3.72;2.70;;;21.50;99.90;;;;;;4947577;28;20298;-78
2022/05/05 08:49:08;;;;;;;3.58;2.40;;;20.00;99.90;;;;;;4955948;29;20289;-77
2022/05/05 08:51:42;;;;;;;5.60;2.63;;;18.00;99.90;;;;;;4955019;28;20262;-78
2022/05/05 08:54:13;;;;;;;3.10;2.38;;;17.30;99.90;;;;;;4955390;29;20203;-78
2022/05/05 08:56:40;;;;;;;3.47;2.45;;;17.50;99.90;;;;;;4952435;28;20210;-78
2022/05/05 08:59:08;;;;;;;4.38;2.40;;;18.10;99.90;;;;;;4936325;29;20208;-78
2022/05/05 09:01:39;;;;;;;5.43;2.28;;;19.70;99.90;;;;;;4944928;29;20222;-78
2022/05/05 09:04:06;;;;;;;3.00;2.17;;;21.90;99.90;;;;;;4955993;29;20203;-78
2022/05/05 09:06:44;;;;;;;7.43;2.50;;;23.80;99.90;;;;;;4955083;28;20238;-78
2022/05/05 09:09:28;;;;;;;1.60;1.50;;;25.60;99.90;;;;;;4955527;29;20610;-78
2022/05/05 09:12:13;;;;;;;1.70;1.40;;;26.00;99.90;;;;;;4949501;29;20310;-78
2022/05/05 09:14:41;;;;;;;2.38;1.40;;;23.50;99.90;;;;;;4938540;29;20287;-77
2022/05/05 09:17:10;;;;;;;1.70;1.30;;;21.30;99.90;;;;;;4955410;29;20203;-78
2022/05/05 09:19:39;;;;;;;2.60;1.30;;;20.70;99.90;;;;;;4955135;29;20203;-78
2022/05/05 09:22:07;;;;;;;3.33;1.50;;;20.20;99.90;;;;;;4955451;29;20726;-78
2022/05/05 09:24:35;;;;;;;2.88;1.50;;;21.20;99.90;;;;;;4955152;29;20683;-77
2022/05/05 09:27:19;;;;;;;1.73;1.02;;;23.70;99.90;;;;;;4955404;29;20250;-77
2022/05/05 09:30:00;;;;;;;2.08;1.20;;;25.50;99.90;;;;;;4954744;29;20218;-77
2022/05/05 09:32:29;;;;;;;1.73;1.08;;;25.60;99.90;;;;;;4954448;29;20229;-77
2022/05/05 09:35:02;;;;;;;2.75;1.10;;;23.10;99.90;;;;;;4955103;29;20206;-77
2022/05/05 09:37:30;;;;;;;3.33;1.05;;;22.40;99.90;;;;;;4955546;29;20210;-78
2022/05/05 09:39:59;;;;;;;3.20;1.13;;;21.10;99.90;;;;;;4955029;29;20619;-77
2022/05/05 09:42:40;;;;;;;1.80;1.35;;;20.00;99.90;;;;;;4954437;29;20286;-77
2022/05/05 09:45:21;;;;;;;3.50;1.17;;;20.00;99.90;;;;;;4954913;29;20199;-77
2022/05/05 09:47:50;;;;;;;2.08;1.10;;;20.20;99.90;;;;;;4955104;29;20207;-77
2022/05/05 09:50:20;;;;;;;3.35;1.33;;;20.20;99.90;;;;;;4954413;29;20675;-78
2022/05/05 09:58:22;;;;;;;2.42;1.50;;;25.30;99.90;;;;;;4954552;29;20202;-78
2022/05/05 10:00:58;;;;;;;4.00;1.38;;;26.00;99.90;;;;;;4954442;29;20203;-78
2022/05/05 10:06:19;;;;;;;2.42;1.30;;;25.50;91.50;;;;;;4954349;28;20198;-79
2022/05/05 10:08:49;;;;;;;2.67;1.40;;;23.10;98.60;;;;;;4935252;29;20609;-78
2022/05/05 10:11:19;;;;;;;2.10;1.55;;;21.40;99.90;;;;;;4946987;29;20274;-79
2022/05/05 10:13:47;;;;;;;3.47;1.30;;;22.30;99.90;;;;;;4954209;29;20210;-78
2022/05/05 10:16:15;;;;;;;2.63;1.27;;;25.40;99.90;;;;;;4954338;29;20204;-79
2022/05/05 10:18:43;;;;;;;2.05;1.45;;;27.70;91.80;;;;;;4954427;28;20203;-79
2022/05/05 10:21:16;;;;;;;3.42;1.27;;;27.70;74.00;;;;;;4954008;29;20203;-78
2022/05/05 10:23:55;;;;;;;2.15;1.20;;;25.60;52.30;;;;;;4954223;29;20203;-79
2022/05/05 10:26:24;;;;;;;4.25;1.33;;;23.50;84.70;;;;;;4954295;29;20734;-78
2022/05/05 10:28:52;;;;;;;1.85;1.30;;;22.60;93.70;;;;;;4954310;29;20268;-78
2022/05/05 10:31:45;;;;;;;1.48;1.30;;;22.40;97.00;;;;;;4949183;29;20219;-78
2022/05/05 10:34:19;;;;;;;2.60;1.33;;;25.10;94.10;;;;;;4935323;29;20211;-79
2022/05/05 10:37:01;;;;;;;2.25;1.23;;;22.90;88.70;;;;;;4934797;29;20686;-78
2022/05/05 10:39:42;;;;;;;1.63;1.30;;;22.30;99.90;;;;;;4934744;29;20603;-78
2022/05/05 10:42:15;;;;;;;1.60;1.30;;;24.30;91.50;;;;;;4934602;29;20263;-79
2022/05/05 10:45:05;;;;;;;2.67;1.20;;;26.00;70.60;;;;;;4934933;29;20729;-78
2022/05/05 10:48:15;;;;;;;3.47;1.23;;;25.00;55.60;;;;;;4938438;29;20202;-78
2022/05/05 10:50:49;;;;;;;1.80;1.00;;;23.40;74.80;;;;;;4894722;29;20689;-78
2022/05/05 10:53:29;;;;;;;1.75;1.20;;;22.10;90.10;;;;;;4894487;29;20232;-78
2022/05/05 10:55:58;;;;;;;2.38;1.40;;;21.10;99.90;;;;;;4894761;29;20208;-78
2022/05/05 10:59:06;;;;;;;3.28;1.20;;;22.00;99.90;;;;;;4894623;29;20247;-79
2022/05/05 11:02:00;;;;;;;1.88;1.30;;;25.10;85.70;;;;;;4894760;29;20197;-79
2022/05/05 11:04:30;;;;;;;1.73;1.05;;;23.60;63.70;;;;;;4876389;29;20218;-78
2022/05/05 11:07:36;;;;;;;4.15;1.20;;;22.10;88.50;;;;;;4871025;29;20743;-78
2022/05/05 11:10:08;;;;;;;1.30;1.13;;;22.40;94.30;;;;;;4857430;29;20242;-78
2022/05/05 11:12:36;;;;;;;1.40;1.10;;;23.00;75.70;;;;;;4872052;29;20234;-78
2022/05/05 11:23:27;;;;;;;1.40;1.23;;;27.00;18.40;;;;;;4857468;29;20205;-79
2022/05/05 11:25:55;;;;;;;1.30;1.00;;;26.60;16.70;;;;;;4866091;29;20708;-79
2022/05/05 11:28:23;;;;;;;4.35;1.23;;;27.00;9.90;;;;;;4925117;29;20754;-79
2022/05/05 11:30:51;;;;;;;1.52;1.10;;;26.60;13.60;;;;;;4935651;29;20214;-79
2022/05/05 11:33:20;;;;;;;3.80;1.48;;;24.30;23.30;;;;;;4923047;29;20685;-79
2022/05/05 11:35:58;;;;;;;1.73;0.90;;;24.20;42.50;;;;;;4919400;29;20204;-79
2022/05/05 11:38:28;;;;;;;1.45;1.13;;;25.90;23.90;;;;;;4918669;29;20204;-78
2022/05/05 11:41:04;;;;;;;1.35;1.00;;;26.60;24.50;;;;;;4919273;29;20204;-78
2022/05/05 11:46:18;;;;;;;1.92;1.00;;;26.70;26.00;;;;;;4918546;29;20200;-78
2022/05/05 11:48:53;;;;;;;2.00;1.00;;;28.80;14.20;;;;;;4918989;29;20606;-79
2022/05/05 11:51:24;;;;;;;2.35;1.10;;;28.60;1.00;;;;;;4918608;29;20204;-78
2022/05/05 11:54:03;;;;;;;2.08;1.10;;;27.90;1.00;;;;;;4918998;29;20729;-78
2022/05/05 11:56:31;;;;;;;1.23;1.13;;;27.80;1.00;;;;;;4920952;29;20212;-79
2022/05/05 12:02:00;;;;;;;1.83;1.20;;;24.00;33.40;;;;;;4937672;29;20806;-78
2022/05/05 12:04:28;;;;;;;1.40;1.00;;;23.50;62.80;;;;;;4937361;29;20672;-78
2022/05/05 12:06:57;;;;;;;2.58;1.30;;;23.30;76.80;;;;;;4937838;29;20641;-79
2022/05/05 12:09:24;;;;;;;2.30;1.10;;;24.90;49.50;;;;;;4941097;29;20666;-78
2022/05/05 12:11:51;;;;;;;3.40;1.30;;;25.30;53.10;;;;;;4956293;29;20317;-79
2022/05/05 12:14:22;;;;;;;2.97;1.30;;;26.00;46.50;;;;;;4956646;29;20209;-79
2022/05/05 12:16:51;;;;;;;1.38;1.00;;;25.50;42.10;;;;;;4957126;29;20206;-79
2022/05/05 12:19:21;;;;;;;2.65;1.30;;;26.10;36.30;;;;;;4957051;29;20236;-78
2022/05/05 12:21:53;;;;;;;1.55;1.38;;;26.00;34.70;;;;;;4952129;28;20200;-78
2022/05/05 12:24:22;;;;;;;1.58;1.20;;;26.80;21.70;;;;;;4956641;28;20214;-78
2022/05/05 12:26:49;;;;;;;1.90;1.40;;;25.50;27.60;;;;;;4956327;28;20214;-79
2022/05/05 12:29:18;;;;;;;1.40;0.98;;;23.00;61.40;;;;;;4956834;28;20311;-78
2022/05/05 12:31:55;;;;;;;1.70;1.38;;;22.30;86.80;;;;;;4956227;28;20200;-78
2022/05/05 12:34:25;;;;;;;2.15;1.35;;;22.60;89.20;;;;;;4956202;29;20238;-78
2022/05/05 12:37:12;;;;;;;2.03;1.30;;;24.20;75.90;;;;;;4955817;28;20203;-79
2022/05/05 12:39:54;;;;;;;2.67;1.50;;;25.40;59.30;;;;;;4955947;28;20294;-79
2022/05/05 12:42:22;;;;;;;2.65;1.20;;;23.80;69.10;;;;;;4955126;28;20235;-79
2022/05/05 12:44:50;;;;;;;3.40;1.40;;;22.10;91.40;;;;;;4955834;29;20207;-78
2022/05/05 12:47:23;;;;;;;2.15;1.30;;;23.10;94.00;;;;;;4956204;28;20207;-79
2022/05/05 12:49:52;;;;;;;2.13;1.40;;;25.70;53.00;;;;;;4956084;28;20203;-79
2022/05/05 13:00:53;;;;;;;1.75;1.40;;;26.80;27.50;;;;;;4955616;29;20283;-79
2022/05/05 13:03:21;;;;;;;2.90;1.48;;;26.10;49.00;;;;;;4955504;28;20659;-79
2022/05/05 13:05:50;;;;;;;1.58;1.45;;;27.10;22.90;;;;;;4953863;28;20210;-79
2022/05/05 13:08:17;;;;;;;2.78;1.50;;;25.40;40.40;;;;;;4936452;29;20738;-79
2022/05/05 13:10:44;;;;;;;2.17;1.58;;;24.70;65.70;;;;;;4936705;29;20335;-79
2022/05/05 13:13:10;;;;;;;2.03;1.80;;;24.50;57.80;;;;;;4942409;29;20355;-79
2022/05/05 13:15:38;;;;;;;3.95;1.85;;;22.60;76.40;;;;;;4936459;29;20211;-79
2022/05/05 13:18:05;;;;;;;2.65;2.38;;;21.10;99.90;;;;;;4936676;29;20294;-79
2022/05/05 13:20:33;;;;;;;4.05;2.33;;;20.10;99.90;;;;;;4936171;29;20223;-79
2022/05/05 13:23:01;;;;;;;3.08;1.88;;;21.60;99.90;;;;;;4936400;29;20207;-78
2022/05/05 13:25:28;;;;;;;2.10;1.90;;;22.90;91.50;;;;;;4936180;29;20239;-79
2022/05/05 13:27:55;;;;;;;2.78;1.88;;;24.20;72.50;;;;;;4936278;29;20329;-79
2022/05/05 13:30:22;;;;;;;1.95;1.85;;;23.70;67.10;;;;;;4954348;28;20290;-79
2022/05/05 13:32:49;;;;;;;3.30;2.17;;;22.50;87.90;;;;;;4955179;28;20246;-79
2022/05/05 13:35:16;;;;;;;2.30;2.05;;;21.40;99.90;;;;;;4954912;29;20250;-79
2022/05/05 13:37:43;;;;;;;3.33;2.03;;;22.20;99.90;;;;;;4954744;28;20647;-79
2022/05/05 13:40:12;;;;;;;4.90;2.20;;;23.70;83.80;;;;;;4955240;28;20304;-78
2022/05/05 13:42:39;;;;;;;3.42;2.20;;;21.80;93.70;;;;;;4955247;28;20281;-78
2022/05/05 13:45:07;;;;;;;3.65;2.20;;;21.70;99.90;;;;;;4954590;29;20234;-79
2022/05/05 13:47:34;;;;;;;4.53;1.90;;;23.20;96.10;;;;;;4955075;29;20289;-78